createdAt,value
2018-04-01T00:00:46.084Z,0
2018-04-01T00:02:07.885Z,0
2018-04-01T00:03:30.011Z,0
2018-04-01T00:04:52.008Z,0
2018-04-01T00:06:13.668Z,0
2018-04-01T00:07:35.595Z,0
2018-04-01T00:08:57.462Z,0
2018-04-01T00:10:19.153Z,0
2018-04-01T00:11:40.492Z,0
2018-04-01T00:13:01.923Z,0
2018-04-01T00:14:24.108Z,0
2018-04-01T00:15:46.113Z,0
2018-04-01T00:17:08.090Z,0
2018-04-01T00:18:30.052Z,0
2018-04-01T00:19:51.955Z,0
2018-04-01T00:21:13.955Z,0
2018-04-01T00:22:35.606Z,0
2018-04-01T00:23:57.759Z,0
2018-04-01T00:25:19.927Z,0
2018-04-01T00:26:41.597Z,0
2018-04-01T00:28:02.969Z,0
2018-04-01T00:29:24.852Z,0
2018-04-01T00:30:46.327Z,0
2018-04-01T00:32:08.195Z,0
2018-04-01T00:33:30.155Z,0
2018-04-01T00:34:51.999Z,0
2018-04-01T00:36:13.668Z,0
2018-04-01T00:37:35.034Z,0
2018-04-01T00:38:56.953Z,0
2018-04-01T00:40:18.829Z,0
2018-04-01T00:41:40.422Z,0
2018-04-01T00:43:02.037Z,0
2018-04-01T00:44:23.388Z,0
2018-04-01T00:45:45.558Z,0
2018-04-01T00:47:06.886Z,0
2018-04-01T00:48:29.015Z,0
2018-04-01T00:49:50.971Z,0
2018-04-01T00:51:12.589Z,0
2018-04-01T00:52:34.490Z,0
2018-04-01T00:53:56.087Z,0
2018-04-01T00:55:17.688Z,0
2018-04-01T00:56:39.594Z,0
2018-04-01T00:58:01.576Z,0
2018-04-01T00:59:23.168Z,0
2018-04-01T01:00:45.096Z,0
2018-04-01T01:02:06.440Z,0
2018-04-01T01:03:28.589Z,0
2018-04-01T01:04:50.721Z,0
2018-04-01T01:06:12.905Z,0
2018-04-01T01:07:34.579Z,0
2018-04-01T01:08:56.476Z,0
2018-04-01T01:10:18.229Z,0
2018-04-01T01:11:40.375Z,0
2018-04-01T01:13:02.569Z,0
2018-04-01T01:14:24.012Z,0
2018-04-01T01:15:45.742Z,0
2018-04-01T01:17:07.153Z,0
2018-04-01T01:18:29.189Z,0
2018-04-01T01:19:51.122Z,0
2018-04-01T01:21:13.048Z,0
2018-04-01T01:22:34.391Z,0
2018-04-01T01:23:56.452Z,0
2018-04-01T01:25:18.152Z,0
2018-04-01T01:26:39.910Z,0
2018-04-01T01:28:01.255Z,0
2018-04-01T01:29:23.140Z,0
2018-04-01T01:30:44.937Z,0
2018-04-01T01:32:06.539Z,0
2018-04-01T01:33:28.522Z,0
2018-04-01T01:34:50.388Z,0
2018-04-01T01:36:12.000Z,0
2018-04-01T01:37:33.344Z,0
2018-04-01T01:38:55.220Z,0
2018-04-01T01:40:16.564Z,0
2018-04-01T01:41:37.994Z,0
2018-04-01T01:42:59.912Z,0
2018-04-01T01:44:21.521Z,0
2018-04-01T01:45:43.381Z,0
2018-04-01T01:47:05.492Z,0
2018-04-01T01:48:27.368Z,0
2018-04-01T01:49:49.243Z,0
2018-04-01T01:51:11.099Z,0
2018-04-01T01:52:32.867Z,0
2018-04-01T01:53:54.566Z,0
2018-04-01T01:55:16.476Z,0
2018-04-01T01:56:37.902Z,0
2018-04-01T01:57:59.541Z,0
2018-04-01T01:59:21.417Z,0
2018-04-01T02:00:43.054Z,0
2018-04-01T02:02:04.769Z,0
2018-04-01T02:03:26.642Z,0
2018-04-01T02:04:48.214Z,0
2018-04-01T02:06:10.078Z,0
2018-04-01T02:07:31.161Z,0
2018-04-01T02:08:53.068Z,0
2018-04-01T02:10:14.419Z,0
2018-04-01T02:11:35.761Z,0
2018-04-01T02:12:57.358Z,0
2018-04-01T02:14:19.584Z,0
2018-04-01T02:15:40.956Z,0
2018-04-01T02:17:02.332Z,0
2018-04-01T02:18:23.959Z,0
2018-04-01T02:19:45.668Z,0
2018-04-01T02:21:07.557Z,0
2018-04-01T02:22:29.722Z,0
2018-04-01T02:23:51.435Z,0
2018-04-01T02:25:13.289Z,0
2018-04-01T02:26:34.641Z,0
2018-04-01T02:27:56.040Z,0
2018-04-01T02:29:17.728Z,0
2018-04-01T02:30:39.154Z,0
2018-04-01T02:32:00.770Z,0
2018-04-01T02:33:22.389Z,0
2018-04-01T02:34:44.010Z,0
2018-04-01T02:36:05.741Z,0
2018-04-01T02:37:27.352Z,0
2018-04-01T02:38:49.291Z,0
2018-04-01T02:40:11.280Z,0
2018-04-01T02:41:33.146Z,0
2018-04-01T02:42:54.757Z,0
2018-04-01T02:44:16.665Z,0
2018-04-01T02:45:38.524Z,0
2018-04-01T02:46:59.767Z,0
2018-04-01T02:48:20.841Z,0
2018-04-01T02:49:42.555Z,0
2018-04-01T02:51:03.690Z,0
2018-04-01T02:52:25.357Z,0
2018-04-01T02:53:46.433Z,0
2018-04-01T02:55:08.144Z,0
2018-04-01T02:56:30.439Z,0
2018-04-01T02:57:51.951Z,0
2018-04-01T02:59:13.581Z,0
2018-04-01T03:00:35.561Z,0
2018-04-01T03:01:57.692Z,0
2018-04-01T03:03:19.570Z,0
2018-04-01T03:04:40.642Z,0
2018-04-01T03:06:02.521Z,0
2018-04-01T03:07:24.547Z,0
2018-04-01T03:08:45.911Z,0
2018-04-01T03:10:08.050Z,0
2018-04-01T03:11:29.884Z,0
2018-04-01T03:12:51.750Z,0
2018-04-01T03:14:13.757Z,0
2018-04-01T03:15:35.371Z,0
2018-04-01T03:16:57.018Z,0
2018-04-01T03:18:18.613Z,0
2018-04-01T03:19:40.429Z,0
2018-04-01T03:21:02.287Z,0
2018-04-01T03:22:23.985Z,0
2018-04-01T03:23:44.888Z,0
2018-04-01T03:25:06.510Z,0
2018-04-01T03:26:28.380Z,0
2018-04-01T03:27:49.993Z,0
2018-04-01T03:29:12.158Z,0
2018-04-01T03:30:34.340Z,0
2018-04-01T03:31:56.220Z,0
2018-04-01T03:33:18.113Z,0
2018-04-01T03:34:39.469Z,0
2018-04-01T03:36:01.432Z,0
2018-04-01T03:37:23.587Z,0
2018-04-01T03:38:45.187Z,0
2018-04-01T03:40:06.525Z,0
2018-04-01T03:41:28.403Z,0
2018-04-01T03:42:49.744Z,0
2018-04-01T03:44:11.360Z,0
2018-04-01T03:45:33.105Z,0
2018-04-01T03:46:55.112Z,0
2018-04-01T03:48:17.254Z,0
2018-04-01T03:49:38.600Z,0
2018-04-01T03:50:59.794Z,0
2018-04-01T03:52:21.393Z,0
2018-04-01T03:53:42.735Z,0
2018-04-01T03:55:04.590Z,0
2018-04-01T03:56:25.681Z,0
2018-04-01T03:57:47.279Z,0
2018-04-01T03:59:08.639Z,0
2018-04-01T04:00:30.651Z,0
2018-04-01T04:01:51.999Z,0
2018-04-01T04:03:14.185Z,0
2018-04-01T04:04:35.514Z,0
2018-04-01T04:05:57.155Z,0
2018-04-01T04:07:19.049Z,0
2018-04-01T04:08:41.126Z,0
2018-04-01T04:10:02.720Z,0
2018-04-01T04:11:23.892Z,0
2018-04-01T04:12:45.775Z,0
2018-04-01T04:14:07.663Z,0
2018-04-01T04:15:29.643Z,0
2018-04-01T04:16:51.250Z,0
2018-04-01T04:18:13.233Z,0
2018-04-01T04:19:34.658Z,0
2018-04-01T04:20:56.257Z,0
2018-04-01T04:22:18.117Z,0
2018-04-01T04:23:39.504Z,0
2018-04-01T04:25:01.111Z,0
2018-04-01T04:26:22.756Z,0
2018-04-01T04:27:44.361Z,0
2018-04-01T04:29:05.965Z,0
2018-04-01T04:30:27.881Z,0
2018-04-01T04:31:49.227Z,0
2018-04-01T04:33:11.094Z,0
2018-04-01T04:34:32.452Z,0
2018-04-01T04:35:53.911Z,0
2018-04-01T04:37:15.959Z,0
2018-04-01T04:38:37.600Z,0
2018-04-01T04:39:59.768Z,0
2018-04-01T04:41:21.751Z,0
2018-04-01T04:42:43.090Z,0
2018-04-01T04:44:04.480Z,0
2018-04-01T04:45:26.352Z,0
2018-04-01T04:46:48.052Z,0
2018-04-01T04:48:10.366Z,0
2018-04-01T04:49:32.042Z,0
2018-04-01T04:50:53.634Z,0
2018-04-01T04:52:15.294Z,0
2018-04-01T04:53:37.595Z,0
2018-04-01T04:54:59.726Z,0
2018-04-01T04:56:21.323Z,5
2018-04-01T04:57:43.214Z,5
2018-04-01T04:59:05.097Z,5
2018-04-01T05:00:27.012Z,5
2018-04-01T05:01:49.152Z,5
2018-04-01T05:03:10.258Z,5
2018-04-01T05:04:31.655Z,5
2018-04-01T05:05:52.732Z,5
2018-04-01T05:07:14.352Z,5
2018-04-01T05:08:36.371Z,5
2018-04-01T05:09:57.434Z,5
2018-04-01T05:11:19.057Z,5
2018-04-01T05:12:40.413Z,10
2018-04-01T05:14:02.029Z,10
2018-04-01T05:15:23.927Z,15
2018-04-01T05:16:45.271Z,15
2018-04-01T05:18:06.353Z,20
2018-04-01T05:19:27.421Z,20
2018-04-01T05:20:48.767Z,20
2018-04-01T05:22:10.632Z,20
2018-04-01T05:23:32.832Z,25
2018-04-01T05:24:54.929Z,30
2018-04-01T05:26:16.552Z,30
2018-04-01T05:27:38.418Z,35
2018-04-01T05:29:00.336Z,35
2018-04-01T05:30:21.676Z,35
2018-04-01T05:31:43.272Z,40
2018-04-01T05:33:05.129Z,50
2018-04-01T05:34:27.349Z,50
2018-04-01T05:35:48.803Z,60
2018-04-01T05:37:10.161Z,65
2018-04-01T05:38:31.306Z,65
2018-04-01T05:39:52.123Z,70
2018-04-01T05:41:13.791Z,75
2018-04-01T05:42:35.418Z,85
2018-04-01T05:43:57.531Z,75
2018-04-01T05:45:18.904Z,80
2018-04-01T05:46:40.296Z,95
2018-04-01T05:48:01.922Z,95
2018-04-01T05:49:23.573Z,95
2018-04-01T05:50:45.466Z,95
2018-04-01T05:52:06.824Z,100
2018-04-01T05:53:29.043Z,100
2018-04-01T05:54:50.384Z,110
2018-04-01T05:56:11.581Z,115
2018-04-01T05:57:33.186Z,105
2018-04-01T05:58:54.786Z,105
2018-04-01T06:00:15.605Z,110
2018-04-01T06:01:37.467Z,110
2018-04-01T06:02:59.332Z,105
2018-04-01T06:04:21.433Z,105
2018-04-01T06:05:43.589Z,100
2018-04-01T06:07:05.342Z,100
2018-04-01T06:08:27.551Z,100
2018-04-01T06:09:49.215Z,80
2018-04-01T06:11:10.836Z,80
2018-04-01T06:12:32.847Z,75
2018-04-01T06:13:54.783Z,85
2018-04-01T06:15:16.232Z,80
2018-04-01T06:16:37.884Z,70
2018-04-01T06:17:59.761Z,75
2018-04-01T06:19:21.122Z,75
2018-04-01T06:20:43.266Z,60
2018-04-01T06:22:04.628Z,55
2018-04-01T06:23:25.967Z,60
2018-04-01T06:24:48.111Z,60
2018-04-01T06:26:10.278Z,55
2018-04-01T06:27:31.922Z,60
2018-04-01T06:28:53.534Z,60
2018-04-01T06:30:15.666Z,60
2018-04-01T06:31:36.821Z,70
2018-04-01T06:32:58.691Z,75
2018-04-01T06:34:20.732Z,60
2018-04-01T06:35:42.350Z,65
2018-04-01T06:37:03.944Z,75
2018-04-01T06:38:25.559Z,85
2018-04-01T06:39:47.721Z,90
2018-04-01T06:41:09.315Z,100
2018-04-01T06:42:30.946Z,110
2018-04-01T06:43:52.574Z,110
2018-04-01T06:45:14.495Z,125
2018-04-01T06:46:36.428Z,130
2018-04-01T06:47:58.052Z,130
2018-04-01T06:49:19.676Z,135
2018-04-01T06:50:41.012Z,125
2018-04-01T06:52:02.728Z,120
2018-04-01T06:53:24.955Z,120
2018-04-01T06:54:46.952Z,125
2018-04-01T06:56:09.104Z,130
2018-04-01T06:57:30.438Z,140
2018-04-01T06:58:52.303Z,150
2018-04-01T07:00:14.197Z,145
2018-04-01T07:01:36.342Z,145
2018-04-01T07:02:57.441Z,150
2018-04-01T07:04:18.876Z,155
2018-04-01T07:05:42.292Z,160
2018-04-01T07:07:04.399Z,160
2018-04-01T07:08:26.034Z,170
2018-04-01T07:09:48.267Z,170
2018-04-01T07:11:09.934Z,175
2018-04-01T07:12:31.861Z,170
2018-04-01T07:13:53.770Z,175
2018-04-01T07:15:15.660Z,190
2018-04-01T07:16:37.320Z,200
2018-04-01T07:17:58.695Z,210
2018-04-01T07:19:20.594Z,220
2018-04-01T07:20:42.201Z,230
2018-04-01T07:22:03.611Z,225
2018-04-01T07:23:25.241Z,220
2018-04-01T07:24:47.513Z,210
2018-04-01T07:26:09.439Z,215
2018-04-01T07:27:31.312Z,260
2018-04-01T07:28:53.485Z,255
2018-04-01T07:30:15.689Z,270
2018-04-01T07:31:37.380Z,280
2018-04-01T07:32:59.000Z,285
2018-04-01T07:34:21.150Z,260
2018-04-01T07:35:43.302Z,270
2018-04-01T07:37:05.450Z,315
2018-04-01T07:38:27.061Z,325
2018-04-01T07:39:48.731Z,310
2018-04-01T07:41:10.417Z,290
2018-04-01T07:42:32.403Z,295
2018-04-01T07:43:54.564Z,255
2018-04-01T07:45:16.198Z,260
2018-04-01T07:46:37.837Z,300
2018-04-01T07:47:59.719Z,265
2018-04-01T07:49:21.430Z,240
2018-04-01T07:50:43.380Z,195
2018-04-01T07:52:05.304Z,240
2018-04-01T07:53:27.462Z,265
2018-04-01T07:54:49.630Z,285
2018-04-01T07:56:11.677Z,235
2018-04-01T07:57:33.303Z,250
2018-04-01T07:58:55.449Z,175
2018-04-01T08:00:16.606Z,185
2018-04-01T08:01:38.528Z,205
2018-04-01T08:03:00.663Z,205
2018-04-01T08:04:22.363Z,200
2018-04-01T08:05:44.231Z,200
2018-04-01T08:07:06.162Z,240
2018-04-01T08:08:27.257Z,245
2018-04-01T08:09:49.136Z,235
2018-04-01T08:11:10.487Z,265
2018-04-01T08:12:31.875Z,325
2018-04-01T08:13:54.231Z,340
2018-04-01T08:15:15.769Z,330
2018-04-01T08:16:37.645Z,305
2018-04-01T08:17:59.259Z,300
2018-04-01T08:19:20.701Z,330
2018-04-01T08:20:42.065Z,365
2018-04-01T08:22:03.983Z,365
2018-04-01T08:23:25.908Z,345
2018-04-01T08:24:48.147Z,360
2018-04-01T08:26:10.306Z,375
2018-04-01T08:27:32.196Z,385
2018-04-01T08:28:54.464Z,315
2018-04-01T08:30:16.542Z,240
2018-04-01T08:31:38.458Z,265
2018-04-01T08:33:00.454Z,220
2018-04-01T08:34:22.432Z,175
2018-04-01T08:35:44.087Z,145
2018-04-01T08:37:06.169Z,130
2018-04-01T08:38:27.002Z,120
2018-04-01T08:39:48.671Z,130
2018-04-01T08:41:10.380Z,130
2018-04-01T08:42:31.797Z,135
2018-04-01T08:43:53.810Z,140
2018-04-01T08:45:15.426Z,155
2018-04-01T08:46:37.330Z,190
2018-04-01T08:47:59.154Z,210
2018-04-01T08:49:21.105Z,215
2018-04-01T08:50:43.270Z,235
2018-04-01T08:52:04.921Z,245
2018-04-01T08:53:26.611Z,250
2018-04-01T08:54:48.517Z,275
2018-04-01T08:56:10.445Z,285
2018-04-01T08:57:32.662Z,285
2018-04-01T08:58:54.509Z,300
2018-04-01T09:00:16.129Z,305
2018-04-01T09:01:38.034Z,310
2018-04-01T09:02:59.927Z,285
2018-04-01T09:04:21.977Z,260
2018-04-01T09:05:43.951Z,250
2018-04-01T09:07:06.120Z,225
2018-04-01T09:08:28.325Z,190
2018-04-01T09:09:50.221Z,190
2018-04-01T09:11:11.321Z,230
2018-04-01T09:12:33.500Z,260
2018-04-01T09:13:54.919Z,250
2018-04-01T09:15:16.888Z,260
2018-04-01T09:16:39.108Z,240
2018-04-01T09:18:01.004Z,240
2018-04-01T09:19:22.898Z,285
2018-04-01T09:20:44.600Z,310
2018-04-01T09:22:06.780Z,320
2018-04-01T09:23:28.513Z,300
2018-04-01T09:24:50.196Z,295
2018-04-01T09:26:12.107Z,325
2018-04-01T09:27:34.089Z,305
2018-04-01T09:28:55.716Z,265
2018-04-01T09:30:17.879Z,260
2018-04-01T09:31:39.512Z,250
2018-04-01T09:33:01.418Z,235
2018-04-01T09:34:23.021Z,260
2018-04-01T09:35:44.648Z,270
2018-04-01T09:37:06.110Z,255
2018-04-01T09:38:27.552Z,250
2018-04-01T09:39:49.700Z,235
2018-04-01T09:41:11.422Z,240
2018-04-01T09:42:32.778Z,250
2018-04-01T09:43:54.760Z,240
2018-04-01T09:45:16.373Z,250
2018-04-01T09:46:38.657Z,265
2018-04-01T09:48:00.342Z,285
2018-04-01T09:49:21.959Z,315
2018-04-01T09:50:43.972Z,340
2018-04-01T09:52:06.198Z,370
2018-04-01T09:53:28.094Z,365
2018-04-01T09:54:49.209Z,340
2018-04-01T09:56:10.839Z,315
2018-04-01T09:57:32.721Z,295
2018-04-01T09:58:54.902Z,320
2018-04-01T10:00:16.528Z,325
2018-04-01T10:01:38.429Z,280
2018-04-01T10:03:00.070Z,255
2018-04-01T10:04:21.715Z,265
2018-04-01T10:05:43.939Z,285
2018-04-01T10:07:05.332Z,315
2018-04-01T10:08:27.570Z,335
2018-04-01T10:09:49.209Z,360
2018-04-01T10:11:11.408Z,340
2018-04-01T10:12:33.314Z,330
2018-04-01T10:13:55.013Z,330
2018-04-01T10:15:16.391Z,330
2018-04-01T10:16:38.286Z,290
2018-04-01T10:18:00.464Z,260
2018-04-01T10:19:22.741Z,270
2018-04-01T10:20:44.370Z,310
2018-04-01T10:22:06.270Z,335
2018-04-01T10:23:28.578Z,335
2018-04-01T10:24:50.498Z,365
2018-04-01T10:26:12.663Z,380
2018-04-01T10:27:34.404Z,370
2018-04-01T10:28:56.554Z,380
2018-04-01T10:30:18.899Z,360
2018-04-01T10:31:40.550Z,325
2018-04-01T10:33:02.441Z,330
2018-04-01T10:34:24.331Z,350
2018-04-01T10:35:46.028Z,360
2018-04-01T10:37:08.277Z,355
2018-04-01T10:38:29.891Z,350
2018-04-01T10:39:51.780Z,365
2018-04-01T10:41:13.152Z,355
2018-04-01T10:42:35.134Z,305
2018-04-01T10:43:57.108Z,310
2018-04-01T10:45:19.008Z,340
2018-04-01T10:46:40.635Z,350
2018-04-01T10:48:02.817Z,330
2018-04-01T10:49:24.760Z,295
2018-04-01T10:50:46.386Z,260
2018-04-01T10:52:08.602Z,245
2018-04-01T10:53:30.505Z,250
2018-04-01T10:54:52.428Z,240
2018-04-01T10:56:14.370Z,235
2018-04-01T10:57:36.018Z,255
2018-04-01T10:58:57.885Z,290
2018-04-01T11:00:20.058Z,320
2018-04-01T11:01:41.972Z,335
2018-04-01T11:03:04.128Z,345
2018-04-01T11:04:26.125Z,350
2018-04-01T11:05:47.756Z,360
2018-04-01T11:07:09.644Z,370
2018-04-01T11:08:31.878Z,380
2018-04-01T11:09:54.052Z,375
2018-04-01T11:11:15.680Z,350
2018-04-01T11:12:37.562Z,345
2018-04-01T11:13:59.584Z,365
2018-04-01T11:15:21.500Z,390
2018-04-01T11:16:43.440Z,405
2018-04-01T11:18:05.646Z,400
2018-04-01T11:19:27.820Z,385
2018-04-01T11:20:49.715Z,385
2018-04-01T11:22:11.711Z,375
2018-04-01T11:23:33.718Z,370
2018-04-01T11:24:55.949Z,375
2018-04-01T11:26:17.949Z,370
2018-04-01T11:27:39.960Z,350
2018-04-01T11:29:02.221Z,340
2018-04-01T11:30:24.141Z,335
2018-04-01T11:31:46.390Z,325
2018-04-01T11:33:08.278Z,315
2018-04-01T11:34:30.464Z,320
2018-04-01T11:35:52.681Z,330
2018-04-01T11:37:14.595Z,340
2018-04-01T11:38:36.488Z,360
2018-04-01T11:39:58.582Z,355
2018-04-01T11:41:20.805Z,345
2018-04-01T11:42:41.682Z,340
2018-04-01T11:44:03.633Z,335
2018-04-01T11:45:25.529Z,355
2018-04-01T11:46:47.722Z,355
2018-04-01T11:48:09.877Z,355
2018-04-01T11:49:31.810Z,370
2018-04-01T11:50:54.030Z,395
2018-04-01T11:52:15.671Z,400
2018-04-01T11:53:37.324Z,385
2018-04-01T11:54:59.505Z,385
2018-04-01T11:56:21.436Z,385
2018-04-01T11:57:43.328Z,375
2018-04-01T11:59:04.731Z,365
2018-04-01T12:00:26.433Z,360
2018-04-01T12:01:48.626Z,350
2018-04-01T12:03:10.678Z,355
2018-04-01T12:04:32.978Z,355
2018-04-01T12:05:54.349Z,325
2018-04-01T12:07:16.245Z,310
2018-04-01T12:08:38.524Z,285
2018-04-01T12:10:00.375Z,275
2018-04-01T12:11:22.391Z,280
2018-04-01T12:12:43.764Z,305
2018-04-01T12:14:05.107Z,340
2018-04-01T12:15:27.221Z,350
2018-04-01T12:16:49.140Z,335
2018-04-01T12:18:11.130Z,335
2018-04-01T12:19:33.035Z,370
2018-04-01T12:20:54.938Z,370
2018-04-01T12:22:17.151Z,380
2018-04-01T12:23:39.346Z,365
2018-04-01T12:25:01.612Z,350
2018-04-01T12:26:23.311Z,355
2018-04-01T12:27:45.244Z,350
2018-04-01T12:29:07.250Z,340
2018-04-01T12:30:29.234Z,325
2018-04-01T12:31:50.896Z,295
2018-04-01T12:33:12.787Z,295
2018-04-01T12:34:34.715Z,345
2018-04-01T12:35:56.095Z,335
2018-04-01T12:37:18.102Z,305
2018-04-01T12:38:40.277Z,280
2018-04-01T12:40:02.181Z,255
2018-04-01T12:41:23.812Z,295
2018-04-01T12:42:45.007Z,300
2018-04-01T12:44:06.946Z,300
2018-04-01T12:45:29.211Z,320
2018-04-01T12:46:50.581Z,305
2018-04-01T12:48:12.243Z,285
2018-04-01T12:49:33.641Z,265
2018-04-01T12:50:55.551Z,320
2018-04-01T12:52:17.217Z,360
2018-04-01T12:53:39.132Z,355
2018-04-01T12:55:00.779Z,340
2018-04-01T12:56:22.474Z,305
2018-04-01T12:57:44.459Z,270
2018-04-01T12:59:06.207Z,250
2018-04-01T13:00:28.232Z,250
2018-04-01T13:01:49.676Z,265
2018-04-01T13:03:11.744Z,275
2018-04-01T13:04:33.931Z,290
2018-04-01T13:05:56.097Z,255
2018-04-01T13:07:18.001Z,220
2018-04-01T13:08:39.917Z,225
2018-04-01T13:10:01.885Z,230
2018-04-01T13:11:23.510Z,265
2018-04-01T13:12:45.449Z,300
2018-04-01T13:14:07.440Z,310
2018-04-01T13:15:28.612Z,255
2018-04-01T13:16:50.836Z,275
2018-04-01T13:18:12.802Z,295
2018-04-01T13:19:34.843Z,350
2018-04-01T13:20:56.907Z,350
2018-04-01T13:22:19.081Z,350
2018-04-01T13:23:41.283Z,320
2018-04-01T13:25:03.530Z,300
2018-04-01T13:26:25.429Z,305
2018-04-01T13:27:47.340Z,285
2018-04-01T13:29:08.957Z,300
2018-04-01T13:30:30.807Z,295
2018-04-01T13:31:52.675Z,280
2018-04-01T13:33:14.322Z,250
2018-04-01T13:34:35.920Z,205
2018-04-01T13:35:58.079Z,190
2018-04-01T13:37:20.341Z,185
2018-04-01T13:38:42.480Z,200
2018-04-01T13:40:04.700Z,230
2018-04-01T13:41:26.064Z,265
2018-04-01T13:42:48.279Z,285
2018-04-01T13:44:10.530Z,260
2018-04-01T13:45:32.172Z,240
2018-04-01T13:46:54.454Z,195
2018-04-01T13:48:16.668Z,200
2018-04-01T13:49:38.923Z,200
2018-04-01T13:51:00.583Z,210
2018-04-01T13:52:22.493Z,230
2018-04-01T13:53:44.132Z,225
2018-04-01T13:55:05.486Z,205
2018-04-01T13:56:27.551Z,195
2018-04-01T13:57:49.735Z,190
2018-04-01T13:59:11.666Z,190
2018-04-01T14:00:33.556Z,200
2018-04-01T14:01:55.460Z,195
2018-04-01T14:03:17.401Z,195
2018-04-01T14:04:39.315Z,180
2018-04-01T14:06:01.321Z,175
2018-04-01T14:07:23.600Z,170
2018-04-01T14:08:45.759Z,170
2018-04-01T14:10:07.432Z,160
2018-04-01T14:11:29.090Z,150
2018-04-01T14:12:50.730Z,150
2018-04-01T14:14:12.769Z,155
2018-04-01T14:15:34.468Z,160
2018-04-01T14:16:56.648Z,160
2018-04-01T14:18:18.873Z,165
2018-04-01T14:19:41.166Z,165
2018-04-01T14:21:03.373Z,160
2018-04-01T14:22:25.639Z,175
2018-04-01T14:23:47.813Z,205
2018-04-01T14:25:09.704Z,185
2018-04-01T14:26:31.355Z,175
2018-04-01T14:27:53.611Z,170
2018-04-01T14:29:15.870Z,170
2018-04-01T14:30:38.186Z,160
2018-04-01T14:32:00.353Z,150
2018-04-01T14:33:22.112Z,145
2018-04-01T14:34:44.040Z,145
2018-04-01T14:36:06.228Z,150
2018-04-01T14:37:28.378Z,155
2018-04-01T14:38:50.475Z,155
2018-04-01T14:40:12.172Z,150
2018-04-01T14:41:34.341Z,145
2018-04-01T14:42:56.560Z,150
2018-04-01T14:44:18.591Z,145
2018-04-01T14:45:40.354Z,140
2018-04-01T14:47:02.311Z,140
2018-04-01T14:48:24.529Z,140
2018-04-01T14:49:46.210Z,145
2018-04-01T14:51:07.835Z,145
2018-04-01T14:52:29.987Z,145
2018-04-01T14:53:51.863Z,150
2018-04-01T14:55:13.382Z,150
2018-04-01T14:56:35.579Z,150
2018-04-01T14:57:57.785Z,145
2018-04-01T14:59:19.694Z,140
2018-04-01T15:00:41.600Z,135
2018-04-01T15:02:03.785Z,135
2018-04-01T15:03:25.805Z,140
2018-04-01T15:04:47.482Z,135
2018-04-01T15:06:09.353Z,135
2018-04-01T15:07:31.631Z,135
2018-04-01T15:08:53.543Z,135
2018-04-01T15:10:15.721Z,135
2018-04-01T15:11:37.660Z,135
2018-04-01T15:12:59.564Z,135
2018-04-01T15:14:21.934Z,135
2018-04-01T15:15:44.163Z,135
2018-04-01T15:17:06.077Z,135
2018-04-01T15:18:28.245Z,135
2018-04-01T15:19:50.424Z,130
2018-04-01T15:21:12.619Z,130
2018-04-01T15:22:34.821Z,130
2018-04-01T15:23:56.764Z,130
2018-04-01T15:25:18.863Z,130
2018-04-01T15:26:41.148Z,130
2018-04-01T15:28:03.058Z,130
2018-04-01T15:29:24.742Z,130
2018-04-01T15:30:45.853Z,130
2018-04-01T15:32:08.371Z,130
2018-04-01T15:33:30.540Z,130
2018-04-01T15:34:52.162Z,130
2018-04-01T15:36:13.536Z,130
2018-04-01T15:37:34.634Z,130
2018-04-01T15:38:56.791Z,130
2018-04-01T15:40:18.171Z,130
2018-04-01T15:41:40.057Z,130
2018-04-01T15:43:01.975Z,125
2018-04-01T15:44:24.280Z,125
2018-04-01T15:45:46.479Z,125
2018-04-01T15:47:08.661Z,125
2018-04-01T15:48:30.036Z,125
2018-04-01T15:49:51.726Z,125
2018-04-01T15:51:13.935Z,125
2018-04-01T15:52:35.911Z,125
2018-04-01T15:53:58.070Z,115
2018-04-01T15:55:20.300Z,120
2018-04-01T15:56:42.331Z,120
2018-04-01T15:58:04.294Z,120
2018-04-01T15:59:26.202Z,120
2018-04-01T16:00:48.100Z,120
2018-04-01T16:02:09.788Z,110
2018-04-01T16:03:31.483Z,120
2018-04-01T16:04:53.163Z,115
2018-04-01T16:06:15.117Z,115
2018-04-01T16:07:37.085Z,115
2018-04-01T16:08:59.009Z,115
2018-04-01T16:10:21.035Z,115
2018-04-01T16:11:42.705Z,110
2018-04-01T16:13:04.636Z,115
2018-04-01T16:14:26.516Z,115
2018-04-01T16:15:48.462Z,110
2018-04-01T16:17:10.080Z,110
2018-04-01T16:18:32.204Z,110
2018-04-01T16:19:54.031Z,110
2018-04-01T16:21:15.652Z,110
2018-04-01T16:22:37.993Z,105
2018-04-01T16:23:59.644Z,105
2018-04-01T16:25:21.314Z,105
2018-04-01T16:26:43.515Z,105
2018-04-01T16:28:05.399Z,100
2018-04-01T16:29:26.793Z,100
2018-04-01T16:30:48.934Z,100
2018-04-01T16:32:11.137Z,100
2018-04-01T16:33:33.327Z,95
2018-04-01T16:34:55.257Z,95
2018-04-01T16:36:16.897Z,95
2018-04-01T16:37:38.788Z,95
2018-04-01T16:39:00.672Z,90
2018-04-01T16:40:22.980Z,90
2018-04-01T16:41:44.645Z,90
2018-04-01T16:43:06.666Z,90
2018-04-01T16:44:28.624Z,85
2018-04-01T16:45:49.985Z,85
2018-04-01T16:47:11.664Z,85
2018-04-01T16:48:33.645Z,80
2018-04-01T16:49:55.691Z,80
2018-04-01T16:51:17.656Z,80
2018-04-01T16:52:39.801Z,80
2018-04-01T16:54:01.682Z,75
2018-04-01T16:55:23.047Z,75
2018-04-01T16:56:45.200Z,75
2018-04-01T16:58:07.179Z,70
2018-04-01T16:59:29.401Z,70
2018-04-01T17:00:51.395Z,70
2018-04-01T17:02:13.386Z,70
2018-04-01T17:03:35.085Z,70
2018-04-01T17:04:56.717Z,70
2018-04-01T17:06:18.088Z,70
2018-04-01T17:07:40.001Z,65
2018-04-01T17:09:01.913Z,65
2018-04-01T17:10:23.832Z,65
2018-04-01T17:11:46.002Z,60
2018-04-01T17:13:08.167Z,60
2018-04-01T17:14:30.160Z,60
2018-04-01T17:15:51.889Z,55
2018-04-01T17:17:13.792Z,55
2018-04-01T17:18:35.829Z,50
2018-04-01T17:19:57.657Z,50
2018-04-01T17:21:19.578Z,50
2018-04-01T17:22:41.154Z,45
2018-04-01T17:24:02.831Z,45
2018-04-01T17:25:24.795Z,45
2018-04-01T17:26:46.473Z,40
2018-04-01T17:28:08.117Z,40
2018-04-01T17:29:30.055Z,40
2018-04-01T17:30:51.971Z,35
2018-04-01T17:32:13.919Z,35
2018-04-01T17:33:36.248Z,35
2018-04-01T17:34:58.172Z,30
2018-04-01T17:36:20.630Z,30
2018-04-01T17:37:42.281Z,25
2018-04-01T17:39:04.362Z,25
2018-04-01T17:40:26.291Z,25
2018-04-01T17:41:48.462Z,25
2018-04-01T17:43:10.712Z,20
2018-04-01T17:44:32.620Z,20
2018-04-01T17:45:54.642Z,20
2018-04-01T17:47:16.541Z,15
2018-04-01T17:48:37.987Z,15
2018-04-01T17:49:59.646Z,15
2018-04-01T17:51:21.571Z,10
2018-04-01T17:52:42.983Z,10
2018-04-01T17:54:04.605Z,10
2018-04-01T17:55:26.543Z,10
2018-04-01T17:56:48.452Z,5
2018-04-01T17:58:10.338Z,5
2018-04-01T17:59:32.657Z,5
2018-04-01T18:00:54.834Z,5
2018-04-01T18:02:16.747Z,5
2018-04-01T18:03:38.713Z,0
2018-04-01T18:05:00.588Z,0
2018-04-01T18:06:22.257Z,0
2018-04-01T18:07:43.875Z,0
2018-04-01T18:09:05.784Z,0
2018-04-01T18:10:27.403Z,0
2018-04-01T18:11:49.180Z,0
2018-04-01T18:13:11.028Z,0
2018-04-01T18:14:32.925Z,0
2018-04-01T18:15:54.852Z,0
2018-04-01T18:17:16.643Z,0
2018-04-01T18:18:38.552Z,0
2018-04-01T18:20:00.186Z,0
2018-04-01T18:21:22.356Z,0
2018-04-01T18:22:44.517Z,0
2018-04-01T18:24:06.142Z,0
2018-04-01T18:25:27.880Z,0
2018-04-01T18:26:49.534Z,0
2018-04-01T18:28:11.703Z,0
2018-04-01T18:29:33.929Z,0
2018-04-01T18:30:55.843Z,0
2018-04-01T18:32:17.743Z,0
2018-04-01T18:33:39.879Z,0
2018-04-01T18:35:01.826Z,0
2018-04-01T18:36:23.993Z,0
2018-04-01T18:37:45.914Z,0
2018-04-01T18:39:07.811Z,0
2018-04-01T18:40:29.876Z,0
2018-04-01T18:41:51.884Z,0
2018-04-01T18:43:13.804Z,0
2018-04-01T18:44:35.714Z,0
2018-04-01T18:45:57.140Z,0
2018-04-01T18:47:19.126Z,0
2018-04-01T18:48:41.320Z,0
2018-04-01T18:50:02.974Z,0
2018-04-01T18:51:24.877Z,0
2018-04-01T18:52:46.783Z,0
2018-04-01T18:54:08.184Z,0
2018-04-01T18:55:30.480Z,0
2018-04-01T18:56:52.643Z,0
2018-04-01T18:58:14.824Z,0
2018-04-01T18:59:36.498Z,0
2018-04-01T19:00:58.468Z,0
2018-04-01T19:02:20.491Z,0
2018-04-01T19:03:42.800Z,0
2018-04-01T19:05:04.857Z,0
2018-04-01T19:06:26.761Z,0
2018-04-01T19:07:48.687Z,0
2018-04-01T19:09:10.705Z,0
2018-04-01T19:10:32.705Z,0
2018-04-01T19:11:54.642Z,0
2018-04-01T19:13:16.610Z,0
2018-04-01T19:14:38.617Z,0
2018-04-01T19:16:00.567Z,0
2018-04-01T19:17:22.528Z,0
2018-04-01T19:18:44.790Z,0
2018-04-01T19:20:06.877Z,0